< < Back
Terminal Aerodrome Forecast


Current Version              Previous Versions:   1  2  3  4  5  6  7  8  9  

Terminal Aerodrome Forecast

520
FTUS44 KBMX 011700
TAFBHM
TAF
KBHM 011731Z 0118/0218 17005KT P6SM SCT050=



Latest METAR

920
SAUS70 KWBC 021700
MTRBHM
METAR KBHM 021653Z 18006KT 10SM FEW034 SCT100 28/17 A3007 RMK AO2 SLP175
T02830172


USA.gov is the U.S. government's official web portal to all federal, state and local government web resources and services.